sensor_id;sensor_type;location;lat;lon;timestamp;temperature;humidity
33476;DHT22;19814;48.224;11.422;2023-07-31T00:00:43;16.30;99.90
33476;DHT22;19814;48.224;11.422;2023-07-31T00:03:08;16.40;99.90
33476;DHT22;19814;48.224;11.422;2023-07-31T00:05:34;16.30;99.90
33476;DHT22;19814;48.224;11.422;2023-07-31T00:07:59;16.30;99.90
33476;DHT22;19814;48.224;11.422;2023-07-31T00:10:25;16.30;99.90
33476;DHT22;19814;48.224;11.422;2023-07-31T00:12:50;16.20;99.90
33476;DHT22;19814;48.224;11.422;2023-07-31T00:15:16;16.20;99.90
33476;DHT22;19814;48.224;11.422;2023-07-31T00:17:42;16.10;99.90
33476;DHT22;19814;48.224;11.422;2023-07-31T00:20:07;16.10;99.90
33476;DHT22;19814;48.224;11.422;2023-07-31T00:22:33;16.10;99.90
33476;DHT22;19814;48.224;11.422;2023-07-31T00:24:59;16.00;99.90
33476;DHT22;19814;48.224;11.422;2023-07-31T00:27:25;16.00;99.90
33476;DHT22;19814;48.224;11.422;2023-07-31T00:29:50;16.00;99.90
33476;DHT22;19814;48.224;11.422;2023-07-31T00:32:16;16.00;99.90
33476;DHT22;19814;48.224;11.422;2023-07-31T00:34:41;16.00;99.90
33476;DHT22;19814;48.224;11.422;2023-07-31T00:37:07;16.00;99.90
33476;DHT22;19814;48.224;11.422;2023-07-31T00:39:33;16.00;99.90
33476;DHT22;19814;48.224;11.422;2023-07-31T00:41:59;16.10;99.90
33476;DHT22;19814;48.224;11.422;2023-07-31T00:44:24;16.10;99.90
33476;DHT22;19814;48.224;11.422;2023-07-31T00:46:50;16.10;99.90
33476;DHT22;19814;48.224;11.422;2023-07-31T00:49:16;16.10;99.90
33476;DHT22;19814;48.224;11.422;2023-07-31T00:51:42;16.00;99.90
33476;DHT22;19814;48.224;11.422;2023-07-31T00:54:07;16.10;99.90
33476;DHT22;19814;48.224;11.422;2023-07-31T00:56:33;16.00;99.90
33476;DHT22;19814;48.224;11.422;2023-07-31T00:58:59;16.10;99.90
33476;DHT22;19814;48.224;11.422;2023-07-31T01:01:24;16.00;99.90
33476;DHT22;19814;48.224;11.422;2023-07-31T01:03:52;16.00;99.90
33476;DHT22;19814;48.224;11.422;2023-07-31T01:09:52;15.90;99.90
33476;DHT22;19814;48.224;11.422;2023-07-31T01:12:21;15.90;99.90
33476;DHT22;19814;48.224;11.422;2023-07-31T01:15:02;16.00;99.90
33476;DHT22;19814;48.224;11.422;2023-07-31T01:17:28;16.00;99.90
33476;DHT22;19814;48.224;11.422;2023-07-31T01:19:56;15.90;99.90
33476;DHT22;19814;48.224;11.422;2023-07-31T01:28:10;16.00;99.90
33476;DHT22;19814;48.224;11.422;2023-07-31T01:30:41;16.00;99.90
33476;DHT22;19814;48.224;11.422;2023-07-31T01:33:09;16.00;99.90
33476;DHT22;19814;48.224;11.422;2023-07-31T01:35:36;16.00;99.90
33476;DHT22;19814;48.224;11.422;2023-07-31T01:38:01;16.10;99.90
33476;DHT22;19814;48.224;11.422;2023-07-31T01:40:27;16.10;99.90
33476;DHT22;19814;48.224;11.422;2023-07-31T01:42:52;16.10;99.90
33476;DHT22;19814;48.224;11.422;2023-07-31T01:45:18;16.10;99.90
33476;DHT22;19814;48.224;11.422;2023-07-31T01:47:43;16.10;99.90
33476;DHT22;19814;48.224;11.422;2023-07-31T01:50:09;15.90;99.90
33476;DHT22;19814;48.224;11.422;2023-07-31T01:52:38;15.80;99.90
33476;DHT22;19814;48.224;11.422;2023-07-31T01:55:04;15.80;99.90
33476;DHT22;19814;48.224;11.422;2023-07-31T01:57:29;15.70;99.90
33476;DHT22;19814;48.224;11.422;2023-07-31T01:59:55;15.80;99.90
33476;DHT22;19814;48.224;11.422;2023-07-31T02:02:21;15.70;99.90
33476;DHT22;19814;48.224;11.422;2023-07-31T02:04:48;15.80;99.90
33476;DHT22;19814;48.224;11.422;2023-07-31T02:07:14;15.90;99.90
33476;DHT22;19814;48.224;11.422;2023-07-31T02:09:40;15.90;99.90
33476;DHT22;19814;48.224;11.422;2023-07-31T02:12:06;15.90;99.90
33476;DHT22;19814;48.224;11.422;2023-07-31T02:14:34;15.90;99.90
33476;DHT22;19814;48.224;11.422;2023-07-31T02:16:59;15.90;99.90
33476;DHT22;19814;48.224;11.422;2023-07-31T02:19:25;15.90;99.90
33476;DHT22;19814;48.224;11.422;2023-07-31T02:21:50;15.90;99.90
33476;DHT22;19814;48.224;11.422;2023-07-31T02:24:16;15.90;99.90
33476;DHT22;19814;48.224;11.422;2023-07-31T02:26:41;15.90;99.90
33476;DHT22;19814;48.224;11.422;2023-07-31T02:29:08;15.90;99.90
33476;DHT22;19814;48.224;11.422;2023-07-31T02:31:33;15.80;99.90
33476;DHT22;19814;48.224;11.422;2023-07-31T02:33:59;15.70;99.90
33476;DHT22;19814;48.224;11.422;2023-07-31T02:36:24;15.70;99.90
33476;DHT22;19814;48.224;11.422;2023-07-31T02:38:50;15.70;99.90
33476;DHT22;19814;48.224;11.422;2023-07-31T02:41:15;15.70;99.90
33476;DHT22;19814;48.224;11.422;2023-07-31T02:43:41;15.70;99.90
33476;DHT22;19814;48.224;11.422;2023-07-31T02:49:28;15.70;99.90
33476;DHT22;19814;48.224;11.422;2023-07-31T02:51:54;15.60;99.90
33476;DHT22;19814;48.224;11.422;2023-07-31T02:54:19;15.60;99.90
33476;DHT22;19814;48.224;11.422;2023-07-31T02:56:47;15.50;99.90
33476;DHT22;19814;48.224;11.422;2023-07-31T02:59:12;15.50;99.90
33476;DHT22;19814;48.224;11.422;2023-07-31T03:01:38;15.50;99.90
33476;DHT22;19814;48.224;11.422;2023-07-31T03:04:04;15.50;99.90
33476;DHT22;19814;48.224;11.422;2023-07-31T03:06:29;15.40;99.90
33476;DHT22;19814;48.224;11.422;2023-07-31T03:08:55;15.40;99.90
33476;DHT22;19814;48.224;11.422;2023-07-31T03:11:20;15.20;99.90
33476;DHT22;19814;48.224;11.422;2023-07-31T03:13:46;15.20;99.90
33476;DHT22;19814;48.224;11.422;2023-07-31T03:16:11;15.10;99.90
33476;DHT22;19814;48.224;11.422;2023-07-31T03:18:37;15.10;99.90
33476;DHT22;19814;48.224;11.422;2023-07-31T03:21:02;15.00;99.90
33476;DHT22;19814;48.224;11.422;2023-07-31T03:23:29;14.90;99.90
33476;DHT22;19814;48.224;11.422;2023-07-31T03:25:58;14.90;99.90
33476;DHT22;19814;48.224;11.422;2023-07-31T03:28:24;15.00;99.90
33476;DHT22;19814;48.224;11.422;2023-07-31T03:30:50;15.00;99.90
33476;DHT22;19814;48.224;11.422;2023-07-31T03:33:16;15.00;99.90
33476;DHT22;19814;48.224;11.422;2023-07-31T03:35:41;15.00;99.90
33476;DHT22;19814;48.224;11.422;2023-07-31T03:38:07;14.90;99.90
33476;DHT22;19814;48.224;11.422;2023-07-31T03:40:32;14.80;99.90
33476;DHT22;19814;48.224;11.422;2023-07-31T03:42:58;14.70;99.90
33476;DHT22;19814;48.224;11.422;2023-07-31T03:45:23;14.80;99.90
33476;DHT22;19814;48.224;11.422;2023-07-31T03:47:49;14.80;99.90
33476;DHT22;19814;48.224;11.422;2023-07-31T03:50:14;14.80;99.90
33476;DHT22;19814;48.224;11.422;2023-07-31T03:52:41;14.90;99.90
33476;DHT22;19814;48.224;11.422;2023-07-31T03:55:07;14.90;99.90
33476;DHT22;19814;48.224;11.422;2023-07-31T03:57:32;15.00;99.90
33476;DHT22;19814;48.224;11.422;2023-07-31T03:59:58;14.90;99.90
33476;DHT22;19814;48.224;11.422;2023-07-31T04:02:24;14.90;99.90
33476;DHT22;19814;48.224;11.422;2023-07-31T04:04:49;14.80;99.90
33476;DHT22;19814;48.224;11.422;2023-07-31T04:07:15;14.80;99.90
33476;DHT22;19814;48.224;11.422;2023-07-31T04:09:40;14.80;99.90
33476;DHT22;19814;48.224;11.422;2023-07-31T04:12:06;14.80;99.90
33476;DHT22;19814;48.224;11.422;2023-07-31T04:14:32;14.80;99.90
33476;DHT22;19814;48.224;11.422;2023-07-31T04:16:57;14.90;99.90
33476;DHT22;19814;48.224;11.422;2023-07-31T04:19:23;14.90;99.90
33476;DHT22;19814;48.224;11.422;2023-07-31T04:21:49;14.90;99.90
33476;DHT22;19814;48.224;11.422;2023-07-31T04:24:14;14.90;99.90
33476;DHT22;19814;48.224;11.422;2023-07-31T04:26:40;14.90;99.90
33476;DHT22;19814;48.224;11.422;2023-07-31T04:29:06;15.00;99.90
33476;DHT22;19814;48.224;11.422;2023-07-31T04:31:31;15.00;99.90
33476;DHT22;19814;48.224;11.422;2023-07-31T04:33:57;15.00;99.90
33476;DHT22;19814;48.224;11.422;2023-07-31T04:36:22;15.10;99.90
33476;DHT22;19814;48.224;11.422;2023-07-31T04:38:48;15.10;99.90
33476;DHT22;19814;48.224;11.422;2023-07-31T04:41:13;15.10;99.90
33476;DHT22;19814;48.224;11.422;2023-07-31T04:43:39;15.10;99.90
33476;DHT22;19814;48.224;11.422;2023-07-31T04:46:05;15.20;99.90
33476;DHT22;19814;48.224;11.422;2023-07-31T04:48:31;15.30;99.90
33476;DHT22;19814;48.224;11.422;2023-07-31T04:50:56;15.30;99.90
33476;DHT22;19814;48.224;11.422;2023-07-31T04:53:22;15.30;99.90
33476;DHT22;19814;48.224;11.422;2023-07-31T04:55:47;15.30;99.90
33476;DHT22;19814;48.224;11.422;2023-07-31T04:58:13;15.30;99.90
33476;DHT22;19814;48.224;11.422;2023-07-31T05:00:38;15.40;99.90
33476;DHT22;19814;48.224;11.422;2023-07-31T05:03:04;15.40;99.90
33476;DHT22;19814;48.224;11.422;2023-07-31T05:05:30;15.30;99.90
33476;DHT22;19814;48.224;11.422;2023-07-31T05:07:55;15.30;99.90
33476;DHT22;19814;48.224;11.422;2023-07-31T05:10:21;15.50;99.90
33476;DHT22;19814;48.224;11.422;2023-07-31T05:12:46;15.50;99.90
33476;DHT22;19814;48.224;11.422;2023-07-31T05:15:12;15.60;99.90
33476;DHT22;19814;48.224;11.422;2023-07-31T05:17:37;15.60;99.90
33476;DHT22;19814;48.224;11.422;2023-07-31T05:20:03;15.70;99.90
33476;DHT22;19814;48.224;11.422;2023-07-31T05:22:29;15.70;99.90
33476;DHT22;19814;48.224;11.422;2023-07-31T05:24:54;15.80;99.90
33476;DHT22;19814;48.224;11.422;2023-07-31T05:27:20;15.80;99.90
33476;DHT22;19814;48.224;11.422;2023-07-31T05:29:45;15.90;99.90
33476;DHT22;19814;48.224;11.422;2023-07-31T05:32:11;15.90;99.90
33476;DHT22;19814;48.224;11.422;2023-07-31T05:34:37;16.10;99.90
33476;DHT22;19814;48.224;11.422;2023-07-31T05:37:03;16.20;99.90
33476;DHT22;19814;48.224;11.422;2023-07-31T05:39:28;16.30;99.90
33476;DHT22;19814;48.224;11.422;2023-07-31T05:41:54;16.50;99.90
33476;DHT22;19814;48.224;11.422;2023-07-31T05:44:19;16.60;99.90
33476;DHT22;19814;48.224;11.422;2023-07-31T05:46:45;16.70;99.90
33476;DHT22;19814;48.224;11.422;2023-07-31T05:49:10;16.80;99.90
33476;DHT22;19814;48.224;11.422;2023-07-31T05:51:36;16.90;99.90
33476;DHT22;19814;48.224;11.422;2023-07-31T05:54:01;17.00;99.90
33476;DHT22;19814;48.224;11.422;2023-07-31T05:56:27;17.10;99.90
33476;DHT22;19814;48.224;11.422;2023-07-31T05:58:52;17.20;99.90
33476;DHT22;19814;48.224;11.422;2023-07-31T06:01:18;17.20;99.90
33476;DHT22;19814;48.224;11.422;2023-07-31T06:03:44;17.30;99.90
33476;DHT22;19814;48.224;11.422;2023-07-31T06:06:09;17.40;99.90
33476;DHT22;19814;48.224;11.422;2023-07-31T06:08:35;17.40;99.90
33476;DHT22;19814;48.224;11.422;2023-07-31T06:11:00;17.50;99.90
33476;DHT22;19814;48.224;11.422;2023-07-31T06:13:26;17.70;99.90
33476;DHT22;19814;48.224;11.422;2023-07-31T06:15:51;17.70;99.90
33476;DHT22;19814;48.224;11.422;2023-07-31T06:18:17;17.80;99.90
33476;DHT22;19814;48.224;11.422;2023-07-31T06:20:42;17.90;99.90
33476;DHT22;19814;48.224;11.422;2023-07-31T06:23:08;18.00;99.90
33476;DHT22;19814;48.224;11.422;2023-07-31T06:25:34;18.00;99.90
33476;DHT22;19814;48.224;11.422;2023-07-31T06:27:59;18.00;99.90
33476;DHT22;19814;48.224;11.422;2023-07-31T06:30:25;18.10;99.90
33476;DHT22;19814;48.224;11.422;2023-07-31T06:32:50;18.10;99.90
33476;DHT22;19814;48.224;11.422;2023-07-31T06:35:16;18.20;99.90
33476;DHT22;19814;48.224;11.422;2023-07-31T06:37:41;18.30;99.90
33476;DHT22;19814;48.224;11.422;2023-07-31T06:40:09;18.30;99.90
33476;DHT22;19814;48.224;11.422;2023-07-31T06:42:35;18.40;99.90
33476;DHT22;19814;48.224;11.422;2023-07-31T06:45:02;18.50;99.90
33476;DHT22;19814;48.224;11.422;2023-07-31T06:47:27;18.60;99.90
33476;DHT22;19814;48.224;11.422;2023-07-31T06:49:53;18.70;99.90
33476;DHT22;19814;48.224;11.422;2023-07-31T06:52:18;18.70;99.90
33476;DHT22;19814;48.224;11.422;2023-07-31T06:54:44;18.70;99.90
33476;DHT22;19814;48.224;11.422;2023-07-31T06:57:12;18.80;99.90
33476;DHT22;19814;48.224;11.422;2023-07-31T06:59:38;18.90;99.90
33476;DHT22;19814;48.224;11.422;2023-07-31T07:02:04;19.00;99.90
33476;DHT22;19814;48.224;11.422;2023-07-31T07:04:30;19.10;99.90
33476;DHT22;19814;48.224;11.422;2023-07-31T07:06:55;19.20;99.90
33476;DHT22;19814;48.224;11.422;2023-07-31T07:09:21;19.30;99.90
33476;DHT22;19814;48.224;11.422;2023-07-31T07:11:46;19.30;99.90
33476;DHT22;19814;48.224;11.422;2023-07-31T07:14:12;19.40;99.90
33476;DHT22;19814;48.224;11.422;2023-07-31T07:16:38;19.50;99.90
33476;DHT22;19814;48.224;11.422;2023-07-31T07:19:06;19.60;99.90
33476;DHT22;19814;48.224;11.422;2023-07-31T07:21:32;19.70;99.90
33476;DHT22;19814;48.224;11.422;2023-07-31T07:23:57;19.90;99.90
33476;DHT22;19814;48.224;11.422;2023-07-31T07:26:23;20.20;99.90
33476;DHT22;19814;48.224;11.422;2023-07-31T07:28:48;20.40;99.90
33476;DHT22;19814;48.224;11.422;2023-07-31T07:31:14;20.60;99.90
33476;DHT22;19814;48.224;11.422;2023-07-31T07:33:39;20.60;99.90
33476;DHT22;19814;48.224;11.422;2023-07-31T07:36:05;20.70;99.90
33476;DHT22;19814;48.224;11.422;2023-07-31T07:38:34;20.90;99.90
33476;DHT22;19814;48.224;11.422;2023-07-31T07:41:00;21.20;99.90
33476;DHT22;19814;48.224;11.422;2023-07-31T07:43:25;21.50;99.40
33476;DHT22;19814;48.224;11.422;2023-07-31T07:45:51;21.80;98.40
33476;DHT22;19814;48.224;11.422;2023-07-31T07:48:16;22.10;99.70
33476;DHT22;19814;48.224;11.422;2023-07-31T07:50:42;22.30;98.40
33476;DHT22;19814;48.224;11.422;2023-07-31T07:53:08;22.00;97.00
33476;DHT22;19814;48.224;11.422;2023-07-31T07:55:33;22.10;97.10
33476;DHT22;19814;48.224;11.422;2023-07-31T07:58:00;22.10;97.00
33476;DHT22;19814;48.224;11.422;2023-07-31T08:00:25;22.20;96.70
33476;DHT22;19814;48.224;11.422;2023-07-31T08:02:51;22.40;97.40
33476;DHT22;19814;48.224;11.422;2023-07-31T08:05:17;22.70;96.50
33476;DHT22;19814;48.224;11.422;2023-07-31T08:07:43;22.80;97.10
33476;DHT22;19814;48.224;11.422;2023-07-31T08:10:08;22.80;95.60
33476;DHT22;19814;48.224;11.422;2023-07-31T08:12:34;22.90;94.30
33476;DHT22;19814;48.224;11.422;2023-07-31T08:14:59;23.00;95.50
33476;DHT22;19814;48.224;11.422;2023-07-31T08:17:25;23.20;93.90
33476;DHT22;19814;48.224;11.422;2023-07-31T08:19:51;23.20;95.10
33476;DHT22;19814;48.224;11.422;2023-07-31T08:22:16;23.10;93.60
33476;DHT22;19814;48.224;11.422;2023-07-31T08:24:42;23.10;94.70
33476;DHT22;19814;48.224;11.422;2023-07-31T08:27:07;22.90;94.20
33476;DHT22;19814;48.224;11.422;2023-07-31T08:29:33;22.70;94.40
33476;DHT22;19814;48.224;11.422;2023-07-31T08:31:58;22.50;94.00
33476;DHT22;19814;48.224;11.422;2023-07-31T08:34:24;22.10;92.50
33476;DHT22;19814;48.224;11.422;2023-07-31T08:36:50;21.70;93.80
33476;DHT22;19814;48.224;11.422;2023-07-31T08:39:15;21.40;93.40
33476;DHT22;19814;48.224;11.422;2023-07-31T08:41:41;21.10;93.30
33476;DHT22;19814;48.224;11.422;2023-07-31T08:44:07;20.80;94.60
33476;DHT22;19814;48.224;11.422;2023-07-31T08:46:33;20.70;94.20
33476;DHT22;19814;48.224;11.422;2023-07-31T08:48:59;20.50;94.30
33476;DHT22;19814;48.224;11.422;2023-07-31T08:51:26;20.40;95.60
33476;DHT22;19814;48.224;11.422;2023-07-31T08:53:53;20.30;95.70
33476;DHT22;19814;48.224;11.422;2023-07-31T08:56:19;20.10;96.70
33476;DHT22;19814;48.224;11.422;2023-07-31T08:58:46;20.10;96.40
33476;DHT22;19814;48.224;11.422;2023-07-31T09:01:13;20.10;96.80
33476;DHT22;19814;48.224;11.422;2023-07-31T09:03:39;20.20;95.70
33476;DHT22;19814;48.224;11.422;2023-07-31T09:06:06;20.20;95.40
33476;DHT22;19814;48.224;11.422;2023-07-31T09:08:32;20.50;96.10
33476;DHT22;19814;48.224;11.422;2023-07-31T09:11:02;20.70;95.20
33476;DHT22;19814;48.224;11.422;2023-07-31T09:13:32;20.90;95.30
33476;DHT22;19814;48.224;11.422;2023-07-31T09:15:58;21.10;95.20
33476;DHT22;19814;48.224;11.422;2023-07-31T09:18:24;21.30;95.80
33476;DHT22;19814;48.224;11.422;2023-07-31T09:21:03;21.60;94.50
33476;DHT22;19814;48.224;11.422;2023-07-31T09:23:41;21.70;93.50
33476;DHT22;19814;48.224;11.422;2023-07-31T09:26:07;21.70;93.20
33476;DHT22;19814;48.224;11.422;2023-07-31T09:28:32;21.70;92.70
33476;DHT22;19814;48.224;11.422;2023-07-31T09:30:58;21.70;92.90
33476;DHT22;19814;48.224;11.422;2023-07-31T09:33:24;21.70;92.40
33476;DHT22;19814;48.224;11.422;2023-07-31T09:35:49;21.70;91.80
33476;DHT22;19814;48.224;11.422;2023-07-31T09:38:16;21.60;92.50
33476;DHT22;19814;48.224;11.422;2023-07-31T09:40:48;21.70;92.60
33476;DHT22;19814;48.224;11.422;2023-07-31T09:43:18;21.90;92.40
33476;DHT22;19814;48.224;11.422;2023-07-31T09:45:44;22.10;92.50
33476;DHT22;19814;48.224;11.422;2023-07-31T09:48:11;22.30;93.10
33476;DHT22;19814;48.224;11.422;2023-07-31T09:50:39;22.60;91.30
33476;DHT22;19814;48.224;11.422;2023-07-31T09:53:06;22.80;91.90
33476;DHT22;19814;48.224;11.422;2023-07-31T09:55:32;23.30;93.50
33476;DHT22;19814;48.224;11.422;2023-07-31T09:57:57;23.70;92.30
33476;DHT22;19814;48.224;11.422;2023-07-31T10:00:23;24.00;91.10
33476;DHT22;19814;48.224;11.422;2023-07-31T10:02:52;24.40;91.70
33476;DHT22;19814;48.224;11.422;2023-07-31T10:05:19;24.70;91.50
33476;DHT22;19814;48.224;11.422;2023-07-31T10:07:53;24.90;90.50
33476;DHT22;19814;48.224;11.422;2023-07-31T10:10:21;24.80;88.60
33476;DHT22;19814;48.224;11.422;2023-07-31T10:12:49;24.70;87.00
33476;DHT22;19814;48.224;11.422;2023-07-31T10:15:15;24.50;88.00
33476;DHT22;19814;48.224;11.422;2023-07-31T10:17:41;24.20;89.30
33476;DHT22;19814;48.224;11.422;2023-07-31T10:20:08;24.50;90.50
33476;DHT22;19814;48.224;11.422;2023-07-31T10:22:34;24.70;88.80
33476;DHT22;19814;48.224;11.422;2023-07-31T10:25:00;24.70;90.00
33476;DHT22;19814;48.224;11.422;2023-07-31T10:27:26;24.70;88.70
33476;DHT22;19814;48.224;11.422;2023-07-31T10:29:54;24.70;86.90
33476;DHT22;19814;48.224;11.422;2023-07-31T10:32:21;24.60;87.40
33476;DHT22;19814;48.224;11.422;2023-07-31T10:34:49;24.50;87.20
33476;DHT22;19814;48.224;11.422;2023-07-31T10:37:27;24.30;86.90
33476;DHT22;19814;48.224;11.422;2023-07-31T10:42:34;24.40;89.10
33476;DHT22;19814;48.224;11.422;2023-07-31T10:45:05;24.50;87.60
33476;DHT22;19814;48.224;11.422;2023-07-31T10:47:36;24.10;86.50
33476;DHT22;19814;48.224;11.422;2023-07-31T10:50:12;24.00;87.50
33476;DHT22;19814;48.224;11.422;2023-07-31T10:52:39;24.40;88.50
33476;DHT22;19814;48.224;11.422;2023-07-31T10:55:28;24.70;86.00
33476;DHT22;19814;48.224;11.422;2023-07-31T10:57:55;24.80;85.60
33476;DHT22;19814;48.224;11.422;2023-07-31T11:00:29;24.80;86.00
33476;DHT22;19814;48.224;11.422;2023-07-31T11:02:56;24.40;86.70
33476;DHT22;19814;48.224;11.422;2023-07-31T11:08:22;24.10;88.10
33476;DHT22;19814;48.224;11.422;2023-07-31T11:13:31;24.70;87.40
33476;DHT22;19814;48.224;11.422;2023-07-31T11:15:58;24.50;84.80
33476;DHT22;19814;48.224;11.422;2023-07-31T11:18:24;24.60;86.10
33476;DHT22;19814;48.224;11.422;2023-07-31T11:20:51;24.70;86.20
33476;DHT22;19814;48.224;11.422;2023-07-31T11:23:17;24.90;88.10
33476;DHT22;19814;48.224;11.422;2023-07-31T11:25:43;25.10;84.60
33476;DHT22;19814;48.224;11.422;2023-07-31T11:28:10;25.40;82.60
33476;DHT22;19814;48.224;11.422;2023-07-31T11:30:36;25.70;85.20
33476;DHT22;19814;48.224;11.422;2023-07-31T11:33:04;26.00;84.60
33476;DHT22;19814;48.224;11.422;2023-07-31T11:35:34;26.40;85.20
33476;DHT22;19814;48.224;11.422;2023-07-31T11:38:00;26.50;83.10
33476;DHT22;19814;48.224;11.422;2023-07-31T11:40:27;26.40;81.10
33476;DHT22;19814;48.224;11.422;2023-07-31T11:42:58;26.20;80.70
33476;DHT22;19814;48.224;11.422;2023-07-31T11:45:27;25.90;81.50
33476;DHT22;19814;48.224;11.422;2023-07-31T11:47:54;25.90;81.40
33476;DHT22;19814;48.224;11.422;2023-07-31T11:50:21;26.10;84.00
33476;DHT22;19814;48.224;11.422;2023-07-31T11:52:50;26.20;82.10
33476;DHT22;19814;48.224;11.422;2023-07-31T11:55:17;26.50;84.20
33476;DHT22;19814;48.224;11.422;2023-07-31T11:57:43;26.40;81.70
33476;DHT22;19814;48.224;11.422;2023-07-31T12:00:11;26.50;82.40
33476;DHT22;19814;48.224;11.422;2023-07-31T12:02:38;26.70;85.00
33476;DHT22;19814;48.224;11.422;2023-07-31T12:05:11;27.10;82.20
33476;DHT22;19814;48.224;11.422;2023-07-31T12:07:46;27.10;78.80
33476;DHT22;19814;48.224;11.422;2023-07-31T12:10:26;27.20;77.90
33476;DHT22;19814;48.224;11.422;2023-07-31T12:13:07;26.80;79.30
33476;DHT22;19814;48.224;11.422;2023-07-31T12:15:42;26.70;79.50
33476;DHT22;19814;48.224;11.422;2023-07-31T12:18:13;26.60;76.30
33476;DHT22;19814;48.224;11.422;2023-07-31T12:20:49;26.50;77.80
33476;DHT22;19814;48.224;11.422;2023-07-31T12:23:20;26.60;78.60
33476;DHT22;19814;48.224;11.422;2023-07-31T12:26:14;26.60;78.70
33476;DHT22;19814;48.224;11.422;2023-07-31T12:28:48;26.40;78.60
33476;DHT22;19814;48.224;11.422;2023-07-31T12:31:18;26.30;79.10
33476;DHT22;19814;48.224;11.422;2023-07-31T12:33:45;26.30;80.10
33476;DHT22;19814;48.224;11.422;2023-07-31T12:36:13;26.30;77.70
33476;DHT22;19814;48.224;11.422;2023-07-31T12:38:39;26.30;79.90
33476;DHT22;19814;48.224;11.422;2023-07-31T12:41:04;26.60;78.90
33476;DHT22;19814;48.224;11.422;2023-07-31T12:43:32;26.70;80.80
33476;DHT22;19814;48.224;11.422;2023-07-31T12:45:58;27.00;78.80
33476;DHT22;19814;48.224;11.422;2023-07-31T12:48:24;27.20;79.40
33476;DHT22;19814;48.224;11.422;2023-07-31T12:50:49;27.50;78.30
33476;DHT22;19814;48.224;11.422;2023-07-31T12:53:15;27.30;75.70
33476;DHT22;19814;48.224;11.422;2023-07-31T12:55:41;27.20;76.90
33476;DHT22;19814;48.224;11.422;2023-07-31T12:58:07;27.10;76.40
33476;DHT22;19814;48.224;11.422;2023-07-31T13:00:32;26.70;76.00
33476;DHT22;19814;48.224;11.422;2023-07-31T13:02:59;26.50;76.10
33476;DHT22;19814;48.224;11.422;2023-07-31T13:05:25;26.30;78.90
33476;DHT22;19814;48.224;11.422;2023-07-31T13:07:51;26.30;78.10
33476;DHT22;19814;48.224;11.422;2023-07-31T13:10:17;26.00;79.60
33476;DHT22;19814;48.224;11.422;2023-07-31T13:12:42;25.90;79.30
33476;DHT22;19814;48.224;11.422;2023-07-31T13:15:08;25.80;78.40
33476;DHT22;19814;48.224;11.422;2023-07-31T13:17:33;25.40;77.80
33476;DHT22;19814;48.224;11.422;2023-07-31T13:19:59;25.30;77.90
33476;DHT22;19814;48.224;11.422;2023-07-31T13:22:25;25.20;78.10
33476;DHT22;19814;48.224;11.422;2023-07-31T13:24:51;25.00;77.60
33476;DHT22;19814;48.224;11.422;2023-07-31T13:27:16;25.00;79.70
33476;DHT22;19814;48.224;11.422;2023-07-31T13:29:44;24.90;80.30
33476;DHT22;19814;48.224;11.422;2023-07-31T13:32:10;25.20;78.40
33476;DHT22;19814;48.224;11.422;2023-07-31T13:34:35;25.40;80.60
33476;DHT22;19814;48.224;11.422;2023-07-31T13:37:01;25.60;79.50
33476;DHT22;19814;48.224;11.422;2023-07-31T13:39:26;25.70;80.00
33476;DHT22;19814;48.224;11.422;2023-07-31T13:41:52;25.70;79.50
33476;DHT22;19814;48.224;11.422;2023-07-31T13:44:17;25.60;78.80
33476;DHT22;19814;48.224;11.422;2023-07-31T13:46:43;25.70;77.40
33476;DHT22;19814;48.224;11.422;2023-07-31T13:49:08;25.60;76.90
33476;DHT22;19814;48.224;11.422;2023-07-31T13:51:34;25.80;77.60
33476;DHT22;19814;48.224;11.422;2023-07-31T13:53:59;25.80;79.20
33476;DHT22;19814;48.224;11.422;2023-07-31T13:56:25;25.90;77.70
33476;DHT22;19814;48.224;11.422;2023-07-31T13:58:50;25.80;78.20
33476;DHT22;19814;48.224;11.422;2023-07-31T14:01:16;25.60;79.10
33476;DHT22;19814;48.224;11.422;2023-07-31T14:03:41;25.30;77.20
33476;DHT22;19814;48.224;11.422;2023-07-31T14:06:07;25.00;78.50
33476;DHT22;19814;48.224;11.422;2023-07-31T14:08:32;24.80;79.10
33476;DHT22;19814;48.224;11.422;2023-07-31T14:10:58;24.70;78.40
33476;DHT22;19814;48.224;11.422;2023-07-31T14:13:23;24.70;81.10
33476;DHT22;19814;48.224;11.422;2023-07-31T14:15:49;24.70;80.50
33476;DHT22;19814;48.224;11.422;2023-07-31T14:18:14;24.60;79.60
33476;DHT22;19814;48.224;11.422;2023-07-31T14:20:40;24.50;81.60
33476;DHT22;19814;48.224;11.422;2023-07-31T14:23:06;24.50;79.80
33476;DHT22;19814;48.224;11.422;2023-07-31T14:25:31;24.40;81.20
33476;DHT22;19814;48.224;11.422;2023-07-31T14:27:57;24.40;81.90
33476;DHT22;19814;48.224;11.422;2023-07-31T14:30:22;24.50;82.30
33476;DHT22;19814;48.224;11.422;2023-07-31T14:32:48;24.50;81.50
33476;DHT22;19814;48.224;11.422;2023-07-31T14:35:14;24.50;81.70
33476;DHT22;19814;48.224;11.422;2023-07-31T14:37:43;24.50;80.80
33476;DHT22;19814;48.224;11.422;2023-07-31T14:40:11;24.40;83.30
33476;DHT22;19814;48.224;11.422;2023-07-31T14:42:37;24.40;81.60
33476;DHT22;19814;48.224;11.422;2023-07-31T14:45:06;24.50;83.20
33476;DHT22;19814;48.224;11.422;2023-07-31T14:47:32;24.60;84.10
33476;DHT22;19814;48.224;11.422;2023-07-31T14:49:58;24.70;85.10
33476;DHT22;19814;48.224;11.422;2023-07-31T14:52:24;24.80;84.10
33476;DHT22;19814;48.224;11.422;2023-07-31T14:54:50;24.90;83.70
33476;DHT22;19814;48.224;11.422;2023-07-31T14:57:16;25.00;84.10
33476;DHT22;19814;48.224;11.422;2023-07-31T14:59:41;25.00;82.70
33476;DHT22;19814;48.224;11.422;2023-07-31T15:02:09;24.90;82.60
33476;DHT22;19814;48.224;11.422;2023-07-31T15:04:35;24.80;81.20
33476;DHT22;19814;48.224;11.422;2023-07-31T15:07:01;24.60;82.00
33476;DHT22;19814;48.224;11.422;2023-07-31T15:09:27;24.60;83.40
33476;DHT22;19814;48.224;11.422;2023-07-31T15:11:53;24.30;83.90
33476;DHT22;19814;48.224;11.422;2023-07-31T15:14:18;24.20;83.90
33476;DHT22;19814;48.224;11.422;2023-07-31T15:16:44;24.10;84.30
33476;DHT22;19814;48.224;11.422;2023-07-31T15:19:10;24.00;84.50
33476;DHT22;19814;48.224;11.422;2023-07-31T15:21:39;24.00;84.10
33476;DHT22;19814;48.224;11.422;2023-07-31T15:24:04;23.80;83.90
33476;DHT22;19814;48.224;11.422;2023-07-31T15:26:30;23.70;84.70
33476;DHT22;19814;48.224;11.422;2023-07-31T15:29:04;23.60;83.80
33476;DHT22;19814;48.224;11.422;2023-07-31T15:31:34;23.30;83.90